createdAt,value
2022-12-23T00:00:03.082Z,65.78
2022-12-23T00:03:14.013Z,71.80
2022-12-23T00:06:18.953Z,63.00
2022-12-23T00:09:23.625Z,65.35
2022-12-23T00:12:44.724Z,64.30
2022-12-23T00:15:47.920Z,58.63
2022-12-23T00:18:51.246Z,58.45
2022-12-23T00:21:54.448Z,64.13
2022-12-23T00:24:59.357Z,63.00
2022-12-23T00:28:02.703Z,62.70
2022-12-23T00:31:10.927Z,61.55
2022-12-23T00:34:14.204Z,70.68
2022-12-23T00:37:17.499Z,61.17
2022-12-23T00:40:36.127Z,61.55
2022-12-23T00:43:39.334Z,58.50
2022-12-23T00:46:42.679Z,62.53
2022-12-23T00:49:44.931Z,59.42
2022-12-23T00:52:48.074Z,58.33
2022-12-23T00:55:53.167Z,56.25
2022-12-23T00:58:56.359Z,59.50
2022-12-23T01:02:16.899Z,59.83
2022-12-23T01:05:43.189Z,55.17
2022-12-23T01:08:46.542Z,56.80
2022-12-23T01:11:51.129Z,65.72
2022-12-23T01:14:54.306Z,61.15
2022-12-23T01:17:57.498Z,79.00
2022-12-23T01:21:03.936Z,66.55
2022-12-23T01:24:07.841Z,67.97
2022-12-23T01:27:12.551Z,71.57
2022-12-23T01:30:16.183Z,171.40
2022-12-23T01:33:19.430Z,207.77
2022-12-23T01:36:24.076Z,160.40
2022-12-23T01:39:27.616Z,76.75
2022-12-23T01:42:44.511Z,79.22
2022-12-23T01:45:48.143Z,68.32
2022-12-23T01:48:54.018Z,63.38
2022-12-23T01:51:57.455Z,81.15
2022-12-23T01:55:00.667Z,78.65
2022-12-23T01:58:09.805Z,81.25
2022-12-23T02:01:41.028Z,81.47
2022-12-23T02:04:45.272Z,72.18
2022-12-23T02:08:06.167Z,77.47
2022-12-23T02:11:35.620Z,76.03
2022-12-23T02:15:11.747Z,80.25
2022-12-23T02:18:53.741Z,96.80
2022-12-23T02:22:28.224Z,87.82
2022-12-23T02:26:08.776Z,70.75
2022-12-23T02:29:27.734Z,82.40
2022-12-23T02:32:53.743Z,79.22
2022-12-23T02:36:03.880Z,78.40
2022-12-23T02:39:10.932Z,74.63
2022-12-23T02:42:18.139Z,73.03
2022-12-23T02:45:26.821Z,74.70
2022-12-23T02:48:38.804Z,70.65
2022-12-23T02:51:45.405Z,72.00
2022-12-23T02:54:53.200Z,74.65
2022-12-23T02:57:58.808Z,79.93
2022-12-23T03:01:03.375Z,72.13
2022-12-23T03:04:08.282Z,81.10
2022-12-23T03:07:19.154Z,77.07
2022-12-23T03:10:35.099Z,77.95
2022-12-23T03:14:00.322Z,86.20
2022-12-23T03:17:16.679Z,75.15
2022-12-23T03:20:27.833Z,79.85
2022-12-23T03:23:34.614Z,87.28
2022-12-23T03:26:41.716Z,86.03
2022-12-23T03:29:51.770Z,86.13
2022-12-23T03:32:58.265Z,87.72
2022-12-23T03:36:07.067Z,84.53
2022-12-23T03:39:14.118Z,90.45
2022-12-23T03:42:24.099Z,89.18
2022-12-23T03:45:40.416Z,89.28
2022-12-23T03:48:47.305Z,95.28
2022-12-23T03:51:57.318Z,92.68
2022-12-23T03:55:04.726Z,93.53
2022-12-23T03:58:14.904Z,98.00
2022-12-23T04:01:25.171Z,95.50
2022-12-23T04:07:42.279Z,94.45
2022-12-23T04:10:45.826Z,93.30
2022-12-23T04:13:49.812Z,100.63
2022-12-23T04:16:56.349Z,100.07
2022-12-23T04:19:59.602Z,92.78
2022-12-23T04:23:04.406Z,98.25
2022-12-23T04:26:07.581Z,93.00
2022-12-23T04:29:11.468Z,98.78
2022-12-23T04:32:14.782Z,96.00
2022-12-23T04:35:18.135Z,105.57
2022-12-23T04:38:22.752Z,94.38
2022-12-23T04:41:25.944Z,98.10
2022-12-23T04:44:29.217Z,95.50
2022-12-23T04:47:32.364Z,110.35
2022-12-23T04:50:35.703Z,103.85
2022-12-23T04:53:40.537Z,105.68
2022-12-23T04:56:44.561Z,101.07
2022-12-23T04:59:48.052Z,107.57
2022-12-23T05:02:51.949Z,113.13
2022-12-23T05:05:55.204Z,112.00
2022-12-23T05:08:59.832Z,111.53
2022-12-23T05:12:03.102Z,110.72
2022-12-23T05:15:07.226Z,115.22
2022-12-23T05:18:10.381Z,118.13
2022-12-23T05:21:13.722Z,114.50
2022-12-23T05:24:18.402Z,112.95
2022-12-23T05:27:21.581Z,114.93
2022-12-23T05:30:25.021Z,122.28
2022-12-23T05:33:28.614Z,111.82
2022-12-23T05:36:31.792Z,119.07
2022-12-23T05:39:36.598Z,135.02
2022-12-23T05:42:39.985Z,120.85
2022-12-23T05:45:43.400Z,126.53
2022-12-23T05:48:46.589Z,128.60
2022-12-23T05:51:49.924Z,123.65
2022-12-23T05:54:54.945Z,141.45
2022-12-23T05:57:58.168Z,131.73
2022-12-23T06:01:03.571Z,144.95
2022-12-23T06:04:06.880Z,145.27
2022-12-23T06:07:10.398Z,142.43
2022-12-23T06:10:14.948Z,131.48
2022-12-23T06:13:18.278Z,125.55
2022-12-23T06:16:21.533Z,144.32
2022-12-23T06:19:25.106Z,141.85
2022-12-23T06:22:28.395Z,131.75
2022-12-23T06:25:33.025Z,142.35
2022-12-23T06:28:36.255Z,131.40
2022-12-23T06:31:39.530Z,139.30
2022-12-23T06:34:42.752Z,136.93
2022-12-23T06:37:45.891Z,148.23
2022-12-23T06:40:50.475Z,144.30
2022-12-23T06:43:54.618Z,149.10
2022-12-23T06:46:58.086Z,144.95
2022-12-23T06:50:01.314Z,136.07
2022-12-23T06:53:04.951Z,142.23
2022-12-23T06:56:09.745Z,154.52
2022-12-23T06:59:13.538Z,171.35
2022-12-23T07:02:17.224Z,171.63
2022-12-23T07:05:20.585Z,178.68
2022-12-23T07:08:23.935Z,173.25
2022-12-23T07:11:28.630Z,269.65
2022-12-23T07:14:31.932Z,203.07
2022-12-23T07:17:35.172Z,167.30
2022-12-23T07:20:38.421Z,149.02
2022-12-23T07:23:41.900Z,168.65
2022-12-23T07:26:46.710Z,176.82
2022-12-23T07:29:50.007Z,167.93
2022-12-23T07:32:53.752Z,169.23
2022-12-23T07:35:59.621Z,152.63
2022-12-23T07:39:03.153Z,179.35
2022-12-23T07:45:31.776Z,181.55
2022-12-23T07:48:35.363Z,175.52
2022-12-23T07:51:38.633Z,261.88
2022-12-23T07:54:41.892Z,314.55
2022-12-23T07:57:49.184Z,291.20
2022-12-23T08:00:53.205Z,289.52
2022-12-23T08:03:57.034Z,541.72
2022-12-23T08:07:00.358Z,342.70
2022-12-23T08:10:04.360Z,223.25
2022-12-23T08:13:09.012Z,201.23
2022-12-23T08:16:13.871Z,169.70
2022-12-23T08:19:19.625Z,167.15
2022-12-23T08:22:22.902Z,184.70
2022-12-23T08:25:26.114Z,186.40
2022-12-23T08:28:31.239Z,152.73
2022-12-23T08:31:34.592Z,166.80
2022-12-23T08:34:38.009Z,134.15
2022-12-23T08:37:41.239Z,151.90
2022-12-23T08:40:44.455Z,143.10
2022-12-23T08:43:49.559Z,158.88
2022-12-23T08:46:52.909Z,145.65
2022-12-23T08:49:56.114Z,147.75
2022-12-23T08:52:59.547Z,118.80
2022-12-23T08:56:05.019Z,141.07
2022-12-23T08:59:19.013Z,126.07
2022-12-23T09:02:23.183Z,118.25
2022-12-23T09:05:26.505Z,115.53
2022-12-23T09:08:29.770Z,125.53
2022-12-23T09:11:33.629Z,118.07
2022-12-23T09:14:38.800Z,109.70
2022-12-23T09:17:42.101Z,115.68
2022-12-23T09:20:45.561Z,102.78
2022-12-23T09:23:49.676Z,93.53
2022-12-23T09:26:52.929Z,96.10
2022-12-23T09:29:57.557Z,91.68
2022-12-23T09:33:00.874Z,118.93
2022-12-23T09:36:05.517Z,87.00
2022-12-23T09:39:08.679Z,93.68
2022-12-23T09:42:28.700Z,88.53
2022-12-23T09:46:00.417Z,86.68
2022-12-23T09:49:09.811Z,85.65
2022-12-23T09:52:17.481Z,82.55
2022-12-23T09:55:23.434Z,78.85
2022-12-23T09:58:31.190Z,83.20
2022-12-23T10:01:45.342Z,87.00
2022-12-23T10:04:57.850Z,87.75
2022-12-23T10:08:08.807Z,83.75
2022-12-23T10:11:17.968Z,73.75
2022-12-23T10:14:26.251Z,96.22
2022-12-23T10:17:40.117Z,80.82
2022-12-23T10:20:48.617Z,97.32
2022-12-23T10:23:54.530Z,80.82
2022-12-23T10:27:01.264Z,84.00
2022-12-23T10:30:34.244Z,81.93
2022-12-23T10:33:49.104Z,69.45
2022-12-23T10:37:00.858Z,72.85
2022-12-23T10:40:17.902Z,78.47
2022-12-23T10:43:28.355Z,70.88
2022-12-23T10:49:50.099Z,73.72
2022-12-23T10:52:57.339Z,78.65
2022-12-23T10:56:01.518Z,77.82
2022-12-23T10:59:06.862Z,82.07
2022-12-23T11:02:37.195Z,82.18
2022-12-23T11:08:45.511Z,78.97
2022-12-23T11:12:00.897Z,76.70
2022-12-23T11:15:05.073Z,82.07
2022-12-23T11:18:19.464Z,74.57
2022-12-23T11:21:24.532Z,75.03
2022-12-23T11:24:35.438Z,71.75
2022-12-23T11:27:45.302Z,73.70
2022-12-23T11:30:56.509Z,73.55
2022-12-23T11:34:02.542Z,73.65
2022-12-23T11:37:07.858Z,76.20
2022-12-23T11:40:23.036Z,68.75
2022-12-23T11:43:28.073Z,59.45
2022-12-23T11:46:34.748Z,66.90
2022-12-23T11:49:49.432Z,56.70
2022-12-23T11:52:57.131Z,58.47
2022-12-23T11:56:03.857Z,62.08
2022-12-23T11:59:09.780Z,60.03
2022-12-23T12:02:19.687Z,60.67
2022-12-23T12:05:26.945Z,54.67
2022-12-23T12:08:35.231Z,57.03
2022-12-23T12:11:45.352Z,56.88
2022-12-23T12:14:51.497Z,61.63
2022-12-23T12:17:57.163Z,60.78
2022-12-23T12:21:07.869Z,56.05
2022-12-23T12:24:19.877Z,57.92
2022-12-23T12:27:37.437Z,54.67
2022-12-23T12:30:46.176Z,52.45
2022-12-23T12:33:54.713Z,53.55
2022-12-23T12:37:05.164Z,53.72
2022-12-23T12:40:22.691Z,55.85
2022-12-23T12:43:31.082Z,51.83
2022-12-23T12:46:39.903Z,49.97
2022-12-23T12:49:49.769Z,53.83
2022-12-23T12:52:55.436Z,37.08
2022-12-23T12:56:08.256Z,49.85
2022-12-23T12:59:18.815Z,53.42
2022-12-23T13:02:40.185Z,46.08
2022-12-23T13:06:08.554Z,48.75
2022-12-23T13:09:20.414Z,45.75
2022-12-23T13:12:38.918Z,49.00
2022-12-23T13:15:52.231Z,52.43
2022-12-23T13:19:02.380Z,95.50
2022-12-23T13:22:09.358Z,56.70
2022-12-23T13:25:19.118Z,51.13
2022-12-23T13:28:35.696Z,36.08
2022-12-23T13:31:48.034Z,50.50
2022-12-23T13:35:02.275Z,49.10
2022-12-23T13:38:19.277Z,50.80
2022-12-23T13:41:29.649Z,51.47
2022-12-23T13:47:47.206Z,55.85
2022-12-23T13:50:58.292Z,53.97
2022-12-23T13:54:11.184Z,58.80
2022-12-23T13:57:22.345Z,54.72
2022-12-23T14:00:29.895Z,54.08
2022-12-23T14:03:35.109Z,54.15
2022-12-23T14:06:46.201Z,57.15
2022-12-23T14:09:53.211Z,59.47
2022-12-23T14:13:02.290Z,59.65
2022-12-23T14:16:29.339Z,65.72
2022-12-23T14:19:43.551Z,72.00
2022-12-23T14:22:59.128Z,66.68
2022-12-23T14:26:22.739Z,75.10
2022-12-23T14:29:46.657Z,80.15
2022-12-23T14:32:58.578Z,83.97
2022-12-23T14:36:23.760Z,81.72
2022-12-23T14:39:34.531Z,73.75
2022-12-23T14:42:43.969Z,70.25
2022-12-23T14:45:47.444Z,79.30
2022-12-23T14:49:38.948Z,65.45
2022-12-23T14:53:00.217Z,56.08
2022-12-23T14:59:24.304Z,53.55
2022-12-23T15:02:34.726Z,53.28
2022-12-23T15:08:51.083Z,67.10
2022-12-23T15:11:55.827Z,54.60
2022-12-23T15:15:03.658Z,55.03
2022-12-23T15:18:12.495Z,56.83
2022-12-23T15:21:17.795Z,52.70
2022-12-23T15:24:23.283Z,62.45
2022-12-23T15:27:30.410Z,92.32
2022-12-23T15:30:38.367Z,63.63
2022-12-23T15:37:12.358Z,77.40
2022-12-23T15:40:25.981Z,70.57
2022-12-23T15:43:30.055Z,79.72
2022-12-23T15:46:33.683Z,78.80
2022-12-23T15:49:37.190Z,84.47
2022-12-23T15:52:44.076Z,77.47
2022-12-23T15:55:49.965Z,81.68
2022-12-23T15:58:54.543Z,93.68
2022-12-23T16:01:58.400Z,74.82
2022-12-23T16:05:05.552Z,70.50
2022-12-23T16:08:29.862Z,73.20
2022-12-23T16:11:43.711Z,73.07
2022-12-23T16:14:55.014Z,87.07
2022-12-23T16:18:14.686Z,68.15
2022-12-23T16:21:18.071Z,68.78
2022-12-23T16:24:23.230Z,69.97
2022-12-23T16:27:34.568Z,68.40
2022-12-23T16:30:39.543Z,74.88
2022-12-23T16:33:45.597Z,69.75
2022-12-23T16:36:49.113Z,78.93
2022-12-23T16:39:53.845Z,81.55
2022-12-23T16:42:58.856Z,89.28
2022-12-23T16:46:03.189Z,102.90
2022-12-23T16:49:11.108Z,91.50
2022-12-23T16:52:15.522Z,91.00
2022-12-23T16:55:21.764Z,95.75
2022-12-23T16:58:25.361Z,94.45
2022-12-23T17:01:31.238Z,84.88
2022-12-23T17:04:37.268Z,88.63
2022-12-23T17:07:45.216Z,87.43
2022-12-23T17:10:51.457Z,89.38
2022-12-23T17:14:01.578Z,97.70
2022-12-23T17:17:15.544Z,85.10
2022-12-23T17:20:20.178Z,86.07
2022-12-23T17:23:28.309Z,111.35
2022-12-23T17:26:33.174Z,142.90
2022-12-23T17:29:36.562Z,113.25
2022-12-23T17:32:40.034Z,93.40
2022-12-23T17:35:43.801Z,103.95
2022-12-23T17:38:47.153Z,92.15
2022-12-23T17:41:52.588Z,90.53
2022-12-23T17:44:55.880Z,96.00
2022-12-23T17:47:59.547Z,90.95
2022-12-23T17:51:03.258Z,86.68
2022-12-23T17:54:06.954Z,104.57
2022-12-23T17:57:24.000Z,89.68
2022-12-23T18:00:33.824Z,99.40
2022-12-23T18:03:37.626Z,102.80
2022-12-23T18:06:41.148Z,96.30
2022-12-23T18:09:44.635Z,125.60
2022-12-23T18:12:52.470Z,113.35
2022-12-23T18:15:55.791Z,104.72
2022-12-23T18:18:59.149Z,101.88
2022-12-23T18:22:03.712Z,114.55
2022-12-23T18:25:07.626Z,108.13
2022-12-23T18:28:13.292Z,112.18
2022-12-23T18:31:18.150Z,119.53
2022-12-23T18:34:21.971Z,120.68
2022-12-23T18:37:25.725Z,110.30
2022-12-23T18:40:32.904Z,117.60
2022-12-23T18:43:38.639Z,115.97
2022-12-23T18:46:42.247Z,120.13
2022-12-23T18:49:45.963Z,129.20
2022-12-23T18:52:51.740Z,126.32
2022-12-23T18:55:55.628Z,123.25
2022-12-23T18:59:02.277Z,131.75
2022-12-23T19:02:06.168Z,140.98
2022-12-23T19:05:23.849Z,146.48
2022-12-23T19:08:28.093Z,143.40
2022-12-23T19:11:31.700Z,140.10
2022-12-23T19:14:36.570Z,146.98
2022-12-23T19:17:40.194Z,147.10
2022-12-23T19:20:46.847Z,135.48
2022-12-23T19:23:51.784Z,168.50
2022-12-23T19:26:55.128Z,147.68
2022-12-23T19:30:01.233Z,142.40
2022-12-23T19:33:05.483Z,145.05
2022-12-23T19:36:12.425Z,151.25
2022-12-23T19:39:18.232Z,157.15
2022-12-23T19:42:22.070Z,160.93
2022-12-23T19:45:27.187Z,238.10
2022-12-23T19:48:32.102Z,172.85
2022-12-23T19:51:35.443Z,130.75
2022-12-23T19:54:39.003Z,148.25
2022-12-23T19:57:43.214Z,153.93
2022-12-23T20:00:48.617Z,146.80
2022-12-23T20:03:53.322Z,177.93
2022-12-23T20:06:56.837Z,185.82
2022-12-23T20:10:00.178Z,175.55
2022-12-23T20:13:03.887Z,228.38
2022-12-23T20:16:10.271Z,186.63
2022-12-23T20:19:13.840Z,165.50
2022-12-23T20:22:17.232Z,165.93
2022-12-23T20:25:20.578Z,153.85
2022-12-23T20:28:24.114Z,152.77
2022-12-23T20:31:30.078Z,155.30
2022-12-23T20:34:39.190Z,150.20
2022-12-23T20:37:43.450Z,156.32
2022-12-23T20:40:46.775Z,160.35
2022-12-23T20:44:23.328Z,157.30
2022-12-23T20:47:15.864Z,160.18
2022-12-23T20:50:19.599Z,164.75
2022-12-23T20:53:23.360Z,145.60
2022-12-23T20:56:29.370Z,143.88
2022-12-23T20:59:33.224Z,163.52
2022-12-23T21:02:38.029Z,181.07
2022-12-23T21:05:41.425Z,182.13
2022-12-23T21:08:44.753Z,184.57
2022-12-23T21:11:48.927Z,182.00
2022-12-23T21:14:52.222Z,185.55
2022-12-23T21:17:58.460Z,190.55
2022-12-23T21:21:03.705Z,201.35
2022-12-23T21:24:07.950Z,182.75
2022-12-23T21:27:12.581Z,170.85
2022-12-23T21:30:17.743Z,167.63
2022-12-23T21:33:23.102Z,166.75
2022-12-23T21:36:29.198Z,195.90
2022-12-23T21:39:33.253Z,170.25
2022-12-23T21:42:36.539Z,165.70
2022-12-23T21:45:40.566Z,161.40
2022-12-23T21:48:45.972Z,152.75
2022-12-23T21:51:50.491Z,183.40
2022-12-23T21:54:53.859Z,161.98
2022-12-23T21:57:57.109Z,171.45
2022-12-23T22:01:00.755Z,180.93
2022-12-23T22:04:06.243Z,179.85
2022-12-23T22:07:09.968Z,178.50
2022-12-23T22:10:13.413Z,178.15
2022-12-23T22:13:16.724Z,179.57
2022-12-23T22:16:22.370Z,173.25
2022-12-23T22:19:27.355Z,185.57
2022-12-23T22:22:30.857Z,185.43
2022-12-23T22:25:34.156Z,174.35
2022-12-23T22:28:38.509Z,173.32
2022-12-23T22:31:44.441Z,177.93
2022-12-23T22:34:49.220Z,173.40
2022-12-23T22:37:52.783Z,178.73
2022-12-23T22:40:56.140Z,180.48
2022-12-23T22:44:00.515Z,162.43
2022-12-23T22:47:04.123Z,171.85
2022-12-23T22:50:10.501Z,174.75
2022-12-23T22:53:16.835Z,174.90
2022-12-23T22:56:22.168Z,193.40
2022-12-23T22:59:26.649Z,177.40
2022-12-23T23:02:30.883Z,177.45
2022-12-23T23:05:36.000Z,190.90
2022-12-23T23:08:39.479Z,180.35
2022-12-23T23:11:43.308Z,182.95
2022-12-23T23:14:56.081Z,181.40
2022-12-23T23:17:59.414Z,187.05
2022-12-23T23:21:04.297Z,193.40
2022-12-23T23:24:08.465Z,180.32
2022-12-23T23:27:12.188Z,186.70
2022-12-23T23:30:15.528Z,170.68
2022-12-23T23:33:19.022Z,177.85
2022-12-23T23:36:24.256Z,180.15
2022-12-23T23:39:27.823Z,168.60
2022-12-23T23:42:31.094Z,170.32
2022-12-23T23:45:34.456Z,170.38
2022-12-23T23:48:37.920Z,172.80
2022-12-23T23:51:43.047Z,165.82
2022-12-23T23:54:46.512Z,166.63
2022-12-23T23:57:50.002Z,157.80
